Orchid Ace — 7JDE — position and weather

sailwx.info

Track history (hours):
 
Tides and Currents Weather Stations Pressure Air Temp Water Temp Dewpoint Dewpoint Depression Visibility Wind Speed Wind Dir Waves Ship Positions

Orchid Ace

Last reported at 2015-Aug-02 03:33 UTC. Time now 2015-Aug-02 04:14 UTC.
Position N 40°31' W 071°42'.

Length 200 m; draft 8.9 m.

Type: Cargo ship. MMSI: 432651000.

Date/timePositionNaut miles runAvg speedWind from/ knotsBaromVisibWave heightAir tempDewpointWater temp
2015-Aug-02 03:33N 40°31' W 071°42'1313.3
2015-Aug-02 02:33N 40°32' W 071°24'1413.6
2015-Aug-02 01:33N 40°32' W 071°06'1313.3
2015-Aug-02 00:33N 40°32' W 070°49'1313.4
2015-Aug-01 23:33N 40°33' W 070°31'1413.8
2015-Aug-01 22:33N 40°33' W 070°13'1414.1
2015-Aug-01 21:33N 40°33' W 069°54'1414.1
2015-Aug-01 20:34N 40°34' W 069°36'1414.2
2015-Aug-01 19:34N 40°34' W 069°17'1414.1
2015-Aug-01 18:33N 40°39' W 068°60'1413.6
2015-Aug-01 17:33N 40°43' W 068°43'1313.4
2015-Aug-01 16:33N 40°48' W 068°26'1313.1
2015-Aug-01 15:33N 40°53' W 068°10'1413.8
2015-Aug-01 14:33N 40°58' W 067°53'28816.0
2015-Jul-31 20:33N 44°32' W 063°32'5 5.3
2015-Jul-31 19:33N 44°37' W 063°31'0 0.0
2015-Jul-31 18:28N 44°37' W 063°31'0 0.0
2015-Jul-31 17:28N 44°37' W 063°31'0 0.0
2015-Jul-31 16:16N 44°37' W 063°31'0 0.0
2015-Jul-31 15:22N 44°37' W 063°31'0 0.0
2015-Jul-31 14:04N 44°37' W 063°31'0 0.0
2015-Jul-31 13:33N 44°37' W 063°31'1 1.5
2015-Jul-31 12:33N 44°37' W 063°33'10 8.6
2015-Jul-31 11:23N 44°28' W 063°27'  
2015-Jul-24 22:16N 50°09' W 003°39'1115.6
2015-Jul-24 21:33N 50°18' W 003°28'1010.3
2015-Jul-24 20:34N 50°25' W 003°17'1818.2
2015-Jul-24 19:33N 50°26' W 002°48'3919.3
2015-Jul-24 17:33N 50°29' W 001°48'1918.6
2015-Jul-24 16:33N 50°29' W 001°19'1817.8
2015-Jul-24 15:34N 50°31' W 000°51'2416.7
2015-Jul-24 14:06N 50°31' W 000°13'916.7
2015-Jul-24 13:33N 50°32' E 000°02'1716.7
2015-Jul-24 12:34N 50°36' E 000°27'1817.8
2015-Jul-24 11:34N 50°45' E 000°51'1918.9
2015-Jul-24 10:33N 50°57' E 001°15'1918.8
2015-Jul-24 09:34N 51°09' E 001°38'1717.4
2015-Jul-24 08:34N 51°22' E 001°55'1616.4
2015-Jul-24 07:34N 51°36' E 002°11'1616.1
2015-Jul-24 06:33N 51°48' E 002°28'1616.3
2015-Jul-24 05:34N 52°00' E 002°45'1716.9
2015-Jul-24 04:32N 52°13' E 003°03'1717.7
2015-Jul-24 03:34N 52°28' E 003°19'1818.0
2015-Jul-24 02:33N 52°42' E 003°37'1818.2
2015-Jul-24 01:33N 52°57' E 003°55'1817.6
2015-Jul-24 00:33N 53°07' E 004°18'1716.9
2015-Jul-23 23:32N 53°22' E 004°32'1515.2
2015-Jul-23 22:34N 53°32' E 004°52'1616.2
2015-Jul-23 21:34N 53°37' E 005°17'1716.9
2015-Jul-23 20:34N 53°43' E 005°44'1817.9
2015-Jul-23 19:33N 53°49' E 006°13'2718.1
2015-Jul-23 18:05N 53°55' E 006°57'1017.9
2015-Jul-23 17:33N 53°57' E 007°12'1616.3
2015-Jul-23 16:34N 53°59' E 007°40'1414.3
2015-Jul-23 15:33N 53°51' E 008°00'1616.1
2015-Jul-23 14:33N 53°41' E 008°21'1010.2
2015-Jul-23 13:34N 53°34' E 008°33'1 0.9
2015-Jul-23 12:29N 53°35' E 008°33'0 0.0
2015-Jul-23 11:29N 53°35' E 008°33'0 0.0
2015-Jul-23 10:29N 53°35' E 008°33'0 0.0
2015-Jul-23 09:29N 53°35' E 008°33'0 0.0
2015-Jul-23 08:29N 53°35' E 008°33'0 0.0
2015-Jul-23 07:23N 53°35' E 008°33'0 0.0
2015-Jul-23 06:29N 53°35' E 008°33'0 0.0
2015-Jul-23 05:29N 53°35' E 008°33'0 0.0
2015-Jul-23 04:29N 53°35' E 008°33'  
Track history (hours):
 
Tides and Currents Weather Stations Pressure Air Temp Water Temp Dewpoint Dewpoint Depression Visibility Wind Speed Wind Dir Waves Ship Positions

Orchid Ace

Last reported at 2015-Aug-02 03:33 UTC. Time now 2015-Aug-02 04:14 UTC.
Position N 40°31' W 071°42'.

Length 200 m; draft 8.9 m.

Type: Cargo ship. MMSI: 432651000.

Date/timePositionNaut miles runAvg speedWind from/ knotsBaromVisibWave heightAir tempDewpointWater temp
2015-Aug-02 03:33N 40°31' W 071°42'1313.3
2015-Aug-02 02:33N 40°32' W 071°24'1413.6
2015-Aug-02 01:33N 40°32' W 071°06'1313.3
2015-Aug-02 00:33N 40°32' W 070°49'1313.4
2015-Aug-01 23:33N 40°33' W 070°31'1413.8
2015-Aug-01 22:33N 40°33' W 070°13'1414.1
2015-Aug-01 21:33N 40°33' W 069°54'1414.1
2015-Aug-01 20:34N 40°34' W 069°36'1414.2
2015-Aug-01 19:34N 40°34' W 069°17'1414.1
2015-Aug-01 18:33N 40°39' W 068°60'1413.6
2015-Aug-01 17:33N 40°43' W 068°43'1313.4
2015-Aug-01 16:33N 40°48' W 068°26'1313.1
2015-Aug-01 15:33N 40°53' W 068°10'1413.8
2015-Aug-01 14:33N 40°58' W 067°53'28816.0
2015-Jul-31 20:33N 44°32' W 063°32'5 5.3
2015-Jul-31 19:33N 44°37' W 063°31'0 0.0
2015-Jul-31 18:28N 44°37' W 063°31'0 0.0
2015-Jul-31 17:28N 44°37' W 063°31'0 0.0
2015-Jul-31 16:16N 44°37' W 063°31'0 0.0
2015-Jul-31 15:22N 44°37' W 063°31'0 0.0
2015-Jul-31 14:04N 44°37' W 063°31'0 0.0
2015-Jul-31 13:33N 44°37' W 063°31'1 1.5
2015-Jul-31 12:33N 44°37' W 063°33'10 8.6
2015-Jul-31 11:23N 44°28' W 063°27'  
2015-Jul-24 22:16N 50°09' W 003°39'1115.6
2015-Jul-24 21:33N 50°18' W 003°28'1010.3
2015-Jul-24 20:34N 50°25' W 003°17'1818.2
2015-Jul-24 19:33N 50°26' W 002°48'3919.3
2015-Jul-24 17:33N 50°29' W 001°48'1918.6
2015-Jul-24 16:33N 50°29' W 001°19'1817.8
2015-Jul-24 15:34N 50°31' W 000°51'2416.7
2015-Jul-24 14:06N 50°31' W 000°13'916.7
2015-Jul-24 13:33N 50°32' E 000°02'1716.7
2015-Jul-24 12:34N 50°36' E 000°27'1817.8
2015-Jul-24 11:34N 50°45' E 000°51'1918.9
2015-Jul-24 10:33N 50°57' E 001°15'1918.8
2015-Jul-24 09:34N 51°09' E 001°38'1717.4
2015-Jul-24 08:34N 51°22' E 001°55'1616.4
2015-Jul-24 07:34N 51°36' E 002°11'1616.1
2015-Jul-24 06:33N 51°48' E 002°28'1616.3
2015-Jul-24 05:34N 52°00' E 002°45'1716.9
2015-Jul-24 04:32N 52°13' E 003°03'1717.7
2015-Jul-24 03:34N 52°28' E 003°19'1818.0
2015-Jul-24 02:33N 52°42' E 003°37'1818.2
2015-Jul-24 01:33N 52°57' E 003°55'1817.6
2015-Jul-24 00:33N 53°07' E 004°18'1716.9
2015-Jul-23 23:32N 53°22' E 004°32'1515.2
2015-Jul-23 22:34N 53°32' E 004°52'1616.2
2015-Jul-23 21:34N 53°37' E 005°17'1716.9
2015-Jul-23 20:34N 53°43' E 005°44'1817.9
2015-Jul-23 19:33N 53°49' E 006°13'2718.1
2015-Jul-23 18:05N 53°55' E 006°57'1017.9
2015-Jul-23 17:33N 53°57' E 007°12'1616.3
2015-Jul-23 16:34N 53°59' E 007°40'1414.3
2015-Jul-23 15:33N 53°51' E 008°00'1616.1
2015-Jul-23 14:33N 53°41' E 008°21'1010.2
2015-Jul-23 13:34N 53°34' E 008°33'1 0.9
2015-Jul-23 12:29N 53°35' E 008°33'0 0.0
2015-Jul-23 11:29N 53°35' E 008°33'0 0.0
2015-Jul-23 10:29N 53°35' E 008°33'0 0.0
2015-Jul-23 09:29N 53°35' E 008°33'0 0.0
2015-Jul-23 08:29N 53°35' E 008°33'0 0.0
2015-Jul-23 07:23N 53°35' E 008°33'0 0.0
2015-Jul-23 06:29N 53°35' E 008°33'0 0.0
2015-Jul-23 05:29N 53°35' E 008°33'0 0.0
2015-Jul-23 04:29N 53°35' E 008°33'  

Dump ship's entire track history